createdAt,value
2023-05-14T01:52:03.791Z,84.99
2023-05-14T02:08:47.930Z,68.65
2023-05-14T02:21:59.124Z,63.52
2023-05-14T02:35:57.144Z,62.77
2023-05-14T02:38:35.958Z,58.93
2023-05-14T02:41:14.920Z,64.93
2023-05-14T02:43:53.797Z,57.00
2023-05-14T02:58:12.897Z,58.28
2023-05-14T03:00:51.828Z,56.23
2023-05-14T03:03:31.604Z,53.64
2023-05-14T03:06:11.517Z,58.97
2023-05-14T03:08:51.445Z,57.45
2023-05-14T03:11:29.858Z,56.60
2023-05-14T03:14:08.983Z,55.11
2023-05-14T03:16:49.666Z,55.04
2023-05-14T03:19:28.425Z,56.51
2023-05-14T03:22:07.082Z,51.76
2023-05-14T03:24:47.451Z,57.69
2023-05-14T03:27:26.920Z,53.43
2023-05-14T03:30:06.727Z,53.84
2023-05-14T03:32:47.593Z,54.65
2023-05-14T03:35:26.679Z,51.78
2023-05-14T03:38:05.520Z,54.19
2023-05-14T03:40:44.570Z,51.68
2023-05-14T03:43:23.540Z,51.20
2023-05-14T03:46:03.467Z,52.52
2023-05-14T03:48:42.633Z,53.39
2023-05-14T03:51:41.411Z,53.05
2023-05-14T03:54:20.361Z,50.43
2023-05-14T03:56:59.175Z,52.08
2023-05-14T04:02:37.008Z,50.97
2023-05-14T04:05:16.458Z,49.62
2023-05-14T04:07:56.460Z,52.76
2023-05-14T04:10:36.296Z,51.66
2023-05-14T04:13:16.040Z,48.86
2023-05-14T04:15:56.027Z,46.26
2023-05-14T04:18:36.180Z,46.02
2023-05-14T04:21:15.024Z,46.66
2023-05-14T04:23:57.345Z,47.03
2023-05-14T04:26:37.631Z,47.82
2023-05-14T04:29:19.343Z,49.04
2023-05-14T04:32:20.362Z,46.80
2023-05-14T04:35:00.060Z,44.38
2023-05-14T04:40:38.581Z,46.05
2023-05-14T04:43:18.349Z,44.26
2023-05-14T04:45:58.618Z,46.04
2023-05-14T04:51:35.015Z,45.47
2023-05-14T04:54:15.222Z,44.98
2023-05-14T04:56:55.955Z,51.89
2023-05-14T04:59:39.558Z,48.93
2023-05-14T05:02:18.870Z,46.15
2023-05-14T05:04:59.414Z,48.87
2023-05-14T05:10:55.552Z,45.63
2023-05-14T05:13:36.846Z,55.80
2023-05-14T05:16:35.824Z,43.62
2023-05-14T05:19:15.708Z,49.59
2023-05-14T05:21:56.451Z,41.84
2023-05-14T05:24:37.001Z,45.40
2023-05-14T05:27:16.677Z,43.77
2023-05-14T05:32:54.470Z,52.00
2023-05-14T05:35:34.123Z,42.84
2023-05-14T05:38:14.823Z,46.10
2023-05-14T05:40:54.919Z,37.31
2023-05-14T05:43:36.259Z,45.78
2023-05-14T05:46:18.523Z,44.66
2023-05-14T05:48:59.211Z,47.70
2023-05-14T05:51:40.444Z,44.90
2023-05-14T05:57:17.175Z,43.55
2023-05-14T05:59:58.220Z,43.31
2023-05-14T06:02:49.295Z,43.84
2023-05-14T06:05:28.844Z,42.63
2023-05-14T06:08:28.371Z,44.55
2023-05-14T06:14:07.170Z,40.12
2023-05-14T06:16:48.639Z,41.90
2023-05-14T06:19:30.156Z,43.99
2023-05-14T06:22:10.803Z,36.42
2023-05-14T06:25:10.048Z,39.63
2023-05-14T06:31:08.682Z,48.43
2023-05-14T06:33:50.215Z,42.90
2023-05-14T06:36:31.654Z,42.31
2023-05-14T06:39:12.273Z,41.31
2023-05-14T06:41:56.522Z,44.44
2023-05-14T06:44:39.656Z,37.22
2023-05-14T06:47:20.279Z,40.24
2023-05-14T06:50:00.192Z,42.00
2023-05-14T06:52:41.954Z,41.59
2023-05-14T06:55:21.756Z,40.49
2023-05-14T06:58:01.579Z,40.39
2023-05-14T07:00:42.032Z,43.62
2023-05-14T07:03:21.792Z,38.15
2023-05-14T07:06:02.766Z,40.92
2023-05-14T07:08:42.393Z,40.26
2023-05-14T07:11:23.406Z,48.13
2023-05-14T07:20:20.301Z,42.19
2023-05-14T07:23:02.365Z,46.56
2023-05-14T07:25:48.382Z,47.81
2023-05-14T07:34:26.952Z,44.41
2023-05-14T07:37:09.977Z,47.34
2023-05-14T07:39:50.483Z,48.10
2023-05-14T07:42:50.676Z,51.33
2023-05-14T07:45:32.152Z,43.35
2023-05-14T07:48:14.807Z,43.19
2023-05-14T07:50:58.303Z,49.47
2023-05-14T07:53:37.261Z,50.75
2023-05-14T07:56:19.742Z,59.71
2023-05-14T08:05:15.966Z,49.14
2023-05-14T08:07:56.303Z,40.76
2023-05-14T08:10:38.974Z,41.83
2023-05-14T08:13:20.194Z,43.06
2023-05-14T08:18:59.800Z,41.87
2023-05-14T08:21:41.565Z,40.78
2023-05-14T08:24:41.697Z,35.38
2023-05-14T08:27:43.010Z,40.42
2023-05-14T08:30:24.585Z,36.19
2023-05-14T08:33:06.764Z,41.00
2023-05-14T08:35:48.240Z,48.54
2023-05-14T08:38:29.938Z,45.22
2023-05-14T08:44:26.631Z,44.46
2023-05-14T08:47:30.208Z,42.06
2023-05-14T08:53:11.746Z,39.42
2023-05-14T08:55:53.279Z,41.53
2023-05-14T08:58:35.566Z,38.11
2023-05-14T09:01:16.254Z,35.33
2023-05-14T09:04:00.162Z,32.06
2023-05-14T09:06:41.484Z,31.42
2023-05-14T09:09:23.186Z,32.23
2023-05-14T09:12:06.011Z,30.36
2023-05-14T09:14:48.463Z,37.30
2023-05-14T09:21:06.070Z,34.32
2023-05-14T09:24:06.439Z,31.82
2023-05-14T09:26:49.590Z,32.51
2023-05-14T09:29:33.732Z,32.19
2023-05-14T09:32:17.297Z,30.96
2023-05-14T09:35:03.036Z,39.14
2023-05-14T09:37:49.889Z,33.47
2023-05-14T09:40:32.315Z,31.63
2023-05-14T09:43:14.215Z,36.81
2023-05-14T09:45:58.431Z,32.13
2023-05-14T09:51:58.553Z,32.19
2023-05-14T09:55:01.165Z,35.88
2023-05-14T10:00:44.244Z,34.98
2023-05-14T10:03:28.250Z,34.77
2023-05-14T10:06:14.356Z,35.08
2023-05-14T10:09:00.800Z,36.14
2023-05-14T10:11:46.070Z,44.54
2023-05-14T10:14:34.347Z,37.81
2023-05-14T10:17:41.529Z,36.49
2023-05-14T10:20:25.594Z,39.23
2023-05-14T10:29:06.503Z,34.14
2023-05-14T10:32:02.584Z,34.71
2023-05-14T10:34:54.042Z,34.05
2023-05-14T10:37:36.460Z,41.80
2023-05-14T10:40:39.992Z,38.32
2023-05-14T10:46:22.404Z,33.79
2023-05-14T10:49:07.365Z,34.63
2023-05-14T10:54:48.179Z,34.69
2023-05-14T10:57:32.739Z,38.70
2023-05-14T11:00:15.697Z,35.31
2023-05-14T11:03:18.243Z,36.34
2023-05-14T11:06:02.099Z,35.59
2023-05-14T11:08:45.242Z,34.83
2023-05-14T11:11:25.880Z,33.50
2023-05-14T11:14:08.435Z,36.28
2023-05-14T11:16:52.467Z,36.70
2023-05-14T11:19:53.323Z,42.07
2023-05-14T11:25:35.148Z,43.42
2023-05-14T11:28:17.865Z,42.23
2023-05-14T11:33:59.744Z,37.60
2023-05-14T11:36:43.258Z,38.84
2023-05-14T11:39:28.118Z,41.05
2023-05-14T11:42:24.504Z,39.68
2023-05-14T11:45:08.950Z,43.51
2023-05-14T11:47:52.182Z,40.33
2023-05-14T11:50:37.991Z,38.30
2023-05-14T11:56:41.826Z,44.69
2023-05-14T11:59:27.287Z,44.21
2023-05-14T12:02:14.017Z,43.93
2023-05-14T12:05:03.450Z,41.95
2023-05-14T12:07:44.175Z,47.84
2023-05-14T12:10:26.971Z,42.99
2023-05-14T12:13:08.978Z,48.16
2023-05-14T12:15:54.591Z,44.32
2023-05-14T12:18:38.499Z,48.99
2023-05-14T12:21:20.809Z,47.55
2023-05-14T12:24:07.956Z,47.36
2023-05-14T12:26:55.963Z,48.62
2023-05-14T12:29:37.259Z,50.75
2023-05-14T12:32:28.348Z,49.51
2023-05-14T12:35:40.722Z,43.00
2023-05-14T12:38:47.682Z,42.37
2023-05-14T12:41:28.982Z,42.63
2023-05-14T12:44:28.671Z,41.60
2023-05-14T12:47:08.727Z,37.56
2023-05-14T12:49:49.663Z,38.05
2023-05-14T12:55:13.957Z,36.38
2023-05-14T12:57:54.637Z,36.18
2023-05-14T13:00:34.817Z,46.21
2023-05-14T13:03:14.656Z,47.50
2023-05-14T13:05:53.957Z,55.25
2023-05-14T13:08:35.218Z,71.83
2023-05-14T13:11:14.848Z,71.48
2023-05-14T13:13:54.300Z,78.14
2023-05-14T13:19:52.207Z,80.40
2023-05-14T13:22:33.196Z,82.79
2023-05-14T13:25:14.223Z,64.35
2023-05-14T13:27:56.809Z,65.08
2023-05-14T13:30:39.432Z,62.41
2023-05-14T13:33:19.347Z,64.67
2023-05-14T13:35:59.364Z,62.97
2023-05-14T13:38:40.638Z,62.61
2023-05-14T13:41:20.932Z,62.21
2023-05-14T13:44:00.953Z,60.11
2023-05-14T13:46:40.225Z,53.96
2023-05-14T13:49:15.471Z,55.86
2023-05-14T13:51:45.552Z,61.48
2023-05-14T13:54:15.277Z,56.89
2023-05-14T13:56:44.935Z,51.46
2023-05-14T13:59:15.009Z,55.86
2023-05-14T14:01:44.720Z,54.84
2023-05-14T14:04:17.284Z,53.35
2023-05-14T14:06:47.139Z,56.77
2023-05-14T14:09:16.798Z,59.76
2023-05-14T14:11:46.568Z,59.93
2023-05-14T14:14:16.402Z,60.48
2023-05-14T14:16:46.540Z,65.95
2023-05-14T14:19:18.274Z,66.36
